Time,TemperatureF,DewpointF,PressureIn,WindDirection,WindDirectionDegrees,WindSpeedMPH,WindSpeedGustMPH,Humidity,HourlyPrecipIn,Conditions,Clouds,dailyrainin,SolarRadiationWatts/m^2,SoftwareType,DateUTC
2013-05-23 00:00:00,58.3,51.1,29.79,ESE,112,10.0,12.0,77,0.00,,---,0.00,0.00,VWS V14.01,2013-05-23 05:00:00,
2013-05-23 00:03:00,58.1,51.3,29.79,NE,34,9.0,11.0,78,0.00,,---,0.00,0.00,VWS V14.01,2013-05-23 05:03:00,
2013-05-23 00:05:00,58.1,51.3,29.79,SE,137,11.0,12.0,78,0.00,,---,0.00,0.00,VWS V14.01,2013-05-23 05:05:00,
2013-05-23 00:08:00,57.8,51.0,29.79,East,99,9.0,12.0,78,0.00,,---,0.00,0.00,VWS V14.01,2013-05-23 05:08:00,
2013-05-23 00:10:00,57.6,50.8,29.79,WNW,295,8.0,12.0,78,0.00,,---,0.00,0.00,VWS V14.01,2013-05-23 05:10:00,
2013-05-23 00:13:00,57.5,51.0,29.79,East,100,7.0,10.0,79,0.00,,---,0.00,0.00,VWS V14.01,2013-05-23 05:13:00,
2013-05-23 00:15:00,57.3,50.8,29.79,East,85,8.0,12.0,79,0.00,,---,0.00,0.00,VWS V14.01,2013-05-23 05:15:00,
2013-05-23 00:18:00,57.2,51.1,29.79,SSW,210,6.0,10.0,80,0.00,,---,0.00,0.00,VWS V14.01,2013-05-23 05:18:00,
2013-05-23 00:20:00,57.0,50.9,29.79,SE,126,6.0,10.0,80,0.00,,---,0.00,0.00,VWS V14.01,2013-05-23 05:20:00,
2013-05-23 00:23:00,56.9,50.8,29.79,NNE,27,7.0,8.0,80,0.00,,---,0.00,0.00,VWS V14.01,2013-05-23 05:23:00,
2013-05-23 00:25:00,56.7,50.9,29.79,WNW,287,8.0,8.0,81,0.00,,---,0.00,0.00,VWS V14.01,2013-05-23 05:25:00,
2013-05-23 00:28:00,56.6,50.8,29.79,SSE,165,7.0,9.0,81,0.00,,---,0.00,0.00,VWS V14.01,2013-05-23 05:28:00,
2013-05-23 00:30:00,56.5,50.8,29.79,WSW,240,7.0,9.0,81,0.00,,---,0.00,0.00,VWS V14.01,2013-05-23 05:30:00,
2013-05-23 00:33:00,56.3,50.9,29.79,NE,54,5.0,9.0,82,0.00,,---,0.00,0.00,VWS V14.01,2013-05-23 05:33:00,
2013-05-23 00:35:00,56.3,50.9,29.79,SE,126,8.0,9.0,82,0.00,,---,0.00,0.00,VWS V14.01,2013-05-23 05:35:00,
2013-05-23 00:39:00,56.2,50.8,29.79,ENE,71,7.0,10.0,82,0.00,,---,0.00,0.00,VWS V14.01,2013-05-23 05:39:00,
2013-05-23 00:40:00,56.0,50.6,29.79,ENE,65,8.0,10.0,82,0.00,,---,0.00,0.00,VWS V14.01,2013-05-23 05:40:00,
2013-05-23 00:44:00,55.9,50.5,29.79,SSE,167,8.0,10.0,82,0.00,,---,0.00,0.00,VWS V14.01,2013-05-23 05:44:00,
2013-05-23 00:45:00,55.9,50.8,29.80,NE,44,8.0,10.0,83,0.00,,---,0.00,0.00,VWS V14.01,2013-05-23 05:45:00,
2013-05-23 00:49:00,55.7,50.6,29.80,ESE,119,8.0,11.0,83,0.00,,---,0.00,0.00,VWS V14.01,2013-05-23 05:49:00,
2013-05-23 00:50:00,55.6,50.5,29.80,NE,41,7.0,11.0,83,0.00,,---,0.00,0.00,VWS V14.01,2013-05-23 05:50:00,
2013-05-23 00:54:00,55.6,50.8,29.80,SSW,200,7.0,10.0,84,0.00,,---,0.00,0.00,VWS V14.01,2013-05-23 05:54:00,
2013-05-23 00:55:00,55.6,50.8,29.80,SW,232,7.0,10.0,84,0.00,,---,0.00,0.00,VWS V14.01,2013-05-23 05:55:00,
2013-05-23 00:59:00,55.4,50.7,29.80,South,186,7.0,8.0,84,0.00,,---,0.00,0.00,VWS V14.01,2013-05-23 05:59:00,
2013-05-23 01:00:00,55.4,50.7,29.80,SW,224,6.0,8.0,84,0.00,,---,0.00,0.00,VWS V14.01,2013-05-23 06:00:00,
2013-05-23 01:04:00,55.3,50.6,29.80,SW,233,8.0,9.0,84,0.00,,---,0.00,0.00,VWS V14.01,2013-05-23 06:04:00,
2013-05-23 01:05:00,55.3,50.6,29.80,NE,49,7.0,10.0,84,0.00,,---,0.00,0.00,VWS V14.01,2013-05-23 06:05:00,
2013-05-23 01:09:00,55.3,50.6,29.80,NNE,30,10.0,11.0,84,0.00,,---,0.00,0.00,VWS V14.01,2013-05-23 06:09:00,
2013-05-23 01:10:00,55.1,50.4,29.80,NE,51,8.0,11.0,84,0.00,,---,0.00,0.00,VWS V14.01,2013-05-23 06:10:00,
2013-05-23 01:14:00,55.1,50.4,29.80,SW,233,11.0,13.0,84,0.00,,---,0.00,0.00,VWS V14.01,2013-05-23 06:14:00,
2013-05-23 01:15:00,55.1,50.4,29.79,SW,224,9.0,13.0,84,0.00,,---,0.00,0.00,VWS V14.01,2013-05-23 06:15:00,
2013-05-23 01:19:00,55.1,50.4,29.79,SSE,164,12.0,13.0,84,0.00,,---,0.00,0.00,VWS V14.01,2013-05-23 06:19:00,
2013-05-23 01:20:00,55.1,50.4,29.79,NE,38,8.0,13.0,84,0.00,,---,0.00,0.00,VWS V14.01,2013-05-23 06:20:00,
2013-05-23 01:24:00,55.3,50.6,29.79,SW,230,10.0,12.0,84,0.00,,---,0.00,0.00,VWS V14.01,2013-05-23 06:24:00,
2013-05-23 01:25:00,55.3,50.6,29.79,SE,136,8.0,12.0,84,0.00,,---,0.00,0.00,VWS V14.01,2013-05-23 06:25:00,
2013-05-23 01:29:00,55.1,50.0,29.79,SE,130,6.0,11.0,83,0.00,,---,0.00,0.00,VWS V14.01,2013-05-23 06:29:00,
2013-05-23 01:30:00,55.1,50.0,29.80,SSE,148,6.0,11.0,83,0.00,,---,0.00,0.00,VWS V14.01,2013-05-23 06:30:00,
2013-05-23 01:34:00,55.0,50.3,29.80,ESE,121,7.0,8.0,84,0.00,,---,0.00,0.00,VWS V14.01,2013-05-23 06:34:00,
2013-05-23 01:35:00,55.0,50.3,29.80,West,275,7.0,8.0,84,0.00,,---,0.00,0.00,VWS V14.01,2013-05-23 06:35:00,
2013-05-23 01:39:00,54.8,50.1,29.80,SSE,151,7.0,8.0,84,0.00,,---,0.00,0.00,VWS V14.01,2013-05-23 06:39:00,
2013-05-23 01:40:00,54.8,50.1,29.80,East,93,6.0,8.0,84,0.00,,---,0.00,0.00,VWS V14.01,2013-05-23 06:40:00,
2013-05-23 01:44:00,54.7,50.3,29.80,South,181,6.0,8.0,85,0.00,,---,0.00,0.00,VWS V14.01,2013-05-23 06:44:00,
2013-05-23 01:45:00,54.7,50.3,29.80,ENE,59,6.0,8.0,85,0.00,,---,0.00,0.00,VWS V14.01,2013-05-23 06:45:00,
2013-05-23 01:50:00,54.5,50.1,29.80,NE,40,5.0,7.0,85,0.00,,---,0.00,0.00,VWS V14.01,2013-05-23 06:50:00,
2013-05-23 01:55:00,54.4,50.0,29.80,NE,56,5.0,6.0,85,0.00,,---,0.00,0.00,VWS V14.01,2013-05-23 06:55:00,
2013-05-23 02:00:00,54.4,50.0,29.81,East,92,6.0,7.0,85,0.00,,---,0.00,0.00,VWS V14.01,2013-05-23 07:00:00,
2013-05-23 02:05:00,54.2,49.8,29.81,NE,52,6.0,7.0,85,0.00,,---,0.00,0.00,VWS V14.01,2013-05-23 07:05:00,
2013-05-23 02:10:00,54.1,49.7,29.81,NE,52,5.0,7.0,85,0.00,,---,0.00,0.00,VWS V14.01,2013-05-23 07:10:00,
2013-05-23 02:15:00,54.1,49.7,29.81,SSE,158,5.0,7.0,85,0.00,,---,0.00,0.00,VWS V14.01,2013-05-23 07:15:00,
2013-05-23 02:20:00,53.9,49.5,29.81,SSE,158,3.0,6.0,85,0.00,,---,0.00,0.00,VWS V14.01,2013-05-23 07:20:00,
2013-05-23 02:25:00,53.9,49.8,29.81,South,185,5.0,6.0,86,0.00,,---,0.00,0.00,VWS V14.01,2013-05-23 07:25:00,
2013-05-23 02:30:00,53.8,49.7,29.82,SW,216,5.0,7.0,86,0.00,,---,0.00,0.00,VWS V14.01,2013-05-23 07:30:00,
2013-05-23 02:35:00,53.5,49.4,29.82,North,359,7.0,7.0,86,0.00,,---,0.00,0.00,VWS V14.01,2013-05-23 07:35:00,
2013-05-23 02:40:00,53.3,49.2,29.82,ENE,64,7.0,8.0,86,0.00,,---,0.00,0.00,VWS V14.01,2013-05-23 07:40:00,
2013-05-23 02:45:00,53.3,49.5,29.82,NNE,25,6.0,9.0,87,0.00,,---,0.00,0.00,VWS V14.01,2013-05-23 07:45:00,
2013-05-23 02:50:00,53.2,49.4,29.82,ESE,112,6.0,10.0,87,0.00,,---,0.00,0.00,VWS V14.01,2013-05-23 07:50:00,
2013-05-23 02:55:00,53.2,49.4,29.82,NNE,25,8.0,9.0,87,0.00,,---,0.00,0.00,VWS V14.01,2013-05-23 07:55:00,
2013-05-23 03:00:00,53.2,49.4,29.82,NNE,21,8.0,9.0,87,0.00,,---,0.00,0.00,VWS V14.01,2013-05-23 08:00:00,
2013-05-23 03:05:00,53.2,49.4,29.82,NE,49,6.0,8.0,87,0.00,,---,0.00,0.00,VWS V14.01,2013-05-23 08:05:00,
2013-05-23 03:10:00,53.1,49.0,29.82,North,0,5.0,6.0,86,0.00,,---,0.00,0.00,VWS V14.01,2013-05-23 08:10:00,
2013-05-23 03:15:00,52.9,48.8,29.83,North,0,6.0,7.0,86,0.00,,---,0.00,0.00,VWS V14.01,2013-05-23 08:15:00,
2013-05-23 03:20:00,52.8,49.0,29.83,North,357,5.0,7.0,87,0.00,,---,0.00,0.00,VWS V14.01,2013-05-23 08:20:00,
2013-05-23 03:25:00,52.8,49.0,29.83,North,0,6.0,6.0,87,0.00,,---,0.00,0.00,VWS V14.01,2013-05-23 08:25:00,
2013-05-23 03:30:00,52.8,49.0,29.84,North,359,6.0,8.0,87,0.00,,---,0.00,0.00,VWS V14.01,2013-05-23 08:30:00,
2013-05-23 03:31:00,52.8,49.0,29.84,North,0,6.0,7.0,87,0.00,,---,0.00,0.00,VWS V14.01,2013-05-23 08:31:00,
2013-05-23 03:35:00,52.5,48.8,29.84,NNE,16,8.0,9.0,87,0.00,,---,0.00,0.00,VWS V14.01,2013-05-23 08:35:00,
2013-05-23 03:36:00,52.5,48.8,29.84,NNE,30,7.0,8.0,87,0.00,,---,0.00,0.00,VWS V14.01,2013-05-23 08:36:00,
2013-05-23 03:40:00,52.5,49.1,29.84,North,0,6.0,9.0,88,0.00,,---,0.00,0.00,VWS V14.01,2013-05-23 08:40:00,
2013-05-23 03:41:00,52.5,49.0,29.84,NNE,24,7.0,8.0,88,0.00,,---,0.00,0.00,VWS V14.01,2013-05-23 08:41:00,
2013-05-23 03:45:00,52.5,49.1,29.84,NE,55,7.0,9.0,88,0.00,,---,0.00,0.00,VWS V14.01,2013-05-23 08:45:00,
2013-05-23 03:46:00,52.5,49.0,29.84,NE,44,8.0,8.0,88,0.00,,---,0.00,0.00,VWS V14.01,2013-05-23 08:46:00,
2013-05-23 03:50:00,52.5,49.1,29.84,North,356,8.0,10.0,88,0.00,,---,0.00,0.00,VWS V14.01,2013-05-23 08:50:00,
2013-05-23 03:51:00,52.5,49.0,29.84,North,11,8.0,10.0,88,0.00,,---,0.00,0.00,VWS V14.01,2013-05-23 08:51:00,
2013-05-23 03:55:00,52.5,49.1,29.84,NE,51,7.0,10.0,88,0.00,,---,0.00,0.00,VWS V14.01,2013-05-23 08:55:00,
2013-05-23 03:56:00,52.3,48.9,29.84,North,0,11.0,11.0,88,0.00,,---,0.00,0.00,VWS V14.01,2013-05-23 08:56:00,
2013-05-23 04:00:00,52.3,49.2,29.84,NNE,31,8.0,11.0,89,0.00,,---,0.00,0.00,VWS V14.01,2013-05-23 09:00:00,
2013-05-23 04:01:00,52.3,48.9,29.84,NNE,21,7.0,10.0,88,0.00,,---,0.00,0.00,VWS V14.01,2013-05-23 09:01:00,
2013-05-23 04:05:00,52.3,49.2,29.84,NNE,13,7.0,12.0,89,0.00,,---,0.00,0.00,VWS V14.01,2013-05-23 09:05:00,
2013-05-23 04:06:00,52.3,49.2,29.84,North,0,9.0,9.0,89,0.00,,---,0.00,0.00,VWS V14.01,2013-05-23 09:06:00,
2013-05-23 04:10:00,52.2,48.8,29.84,North,356,4.0,9.0,88,0.00,,---,0.00,0.00,VWS V14.01,2013-05-23 09:10:00,
2013-05-23 04:11:00,52.2,49.1,29.84,North,0,7.0,8.0,89,0.00,,---,0.00,0.00,VWS V14.01,2013-05-23 09:11:00,
2013-05-23 04:15:00,52.2,49.1,29.85,NNE,18,7.0,11.0,89,0.00,,---,0.00,0.00,VWS V14.01,2013-05-23 09:15:00,
2013-05-23 04:16:00,52.2,49.1,29.85,ENE,59,7.0,7.0,89,0.00,,---,0.00,0.00,VWS V14.01,2013-05-23 09:16:00,
2013-05-23 04:20:00,52.0,48.9,29.85,NNE,16,5.0,9.0,89,0.00,,---,0.00,0.00,VWS V14.01,2013-05-23 09:20:00,
2013-05-23 04:21:00,52.0,48.9,29.85,North,353,4.0,7.0,89,0.00,,---,0.00,0.00,VWS V14.01,2013-05-23 09:21:00,
2013-05-23 04:25:00,52.0,48.9,29.85,North,354,6.0,7.0,89,0.00,,---,0.00,0.00,VWS V14.01,2013-05-23 09:25:00,
2013-05-23 04:26:00,51.9,48.8,29.85,North,0,6.0,6.0,89,0.00,,---,0.00,0.00,VWS V14.01,2013-05-23 09:26:00,
2013-05-23 04:30:00,51.9,48.8,29.86,North,0,5.0,7.0,89,0.00,,---,0.00,0.00,VWS V14.01,2013-05-23 09:30:00,
2013-05-23 04:31:00,51.7,48.6,29.86,North,354,5.0,6.0,89,0.00,,---,0.00,0.00,VWS V14.01,2013-05-23 09:31:00,
2013-05-23 04:35:00,51.7,48.6,29.86,NNW,347,4.0,8.0,89,0.00,,---,0.00,0.00,VWS V14.01,2013-05-23 09:35:00,
2013-05-23 04:36:00,51.7,48.6,29.86,North,0,5.0,6.0,89,0.00,,---,0.00,0.00,VWS V14.01,2013-05-23 09:36:00,
2013-05-23 04:40:00,51.6,48.5,29.86,North,359,3.0,6.0,89,0.00,,---,0.00,0.00,VWS V14.01,2013-05-23 09:40:00,
2013-05-23 04:42:00,51.6,48.5,29.86,North,359,1.0,3.0,89,0.00,,---,0.00,0.00,VWS V14.01,2013-05-23 09:42:00,
2013-05-23 04:45:00,51.6,48.5,29.87,North,0,5.0,6.0,89,0.00,,---,0.00,0.00,VWS V14.01,2013-05-23 09:45:00,
2013-05-23 04:47:00,51.6,48.8,29.87,North,0,5.0,6.0,90,0.00,,---,0.00,0.00,VWS V14.01,2013-05-23 09:47:00,
2013-05-23 04:50:00,51.6,48.8,29.87,North,0,6.0,7.0,90,0.00,,---,0.00,0.00,VWS V14.01,2013-05-23 09:50:00,
2013-05-23 04:52:00,51.6,48.8,29.87,North,0,5.0,6.0,90,0.00,,---,0.00,0.00,VWS V14.01,2013-05-23 09:52:00,
2013-05-23 04:55:00,51.3,48.5,29.87,North,357,6.0,7.0,90,0.00,,---,0.00,0.00,VWS V14.01,2013-05-23 09:55:00,
2013-05-23 04:57:00,51.3,48.5,29.87,North,0,7.0,7.0,90,0.00,,---,0.00,0.00,VWS V14.01,2013-05-23 09:57:00,
2013-05-23 05:00:00,51.1,48.3,29.87,North,357,5.0,7.0,90,0.00,,---,0.00,0.00,VWS V14.01,2013-05-23 10:00:00,
2013-05-23 05:02:00,51.1,48.3,29.87,North,0,2.0,5.0,90,0.00,,---,0.00,0.00,VWS V14.01,2013-05-23 10:02:00,
2013-05-23 05:05:00,51.0,48.2,29.87,North,356,3.0,5.0,90,0.00,,---,0.00,0.00,VWS V14.01,2013-05-23 10:05:00,
2013-05-23 05:07:00,51.0,48.2,29.87,NNW,346,5.0,5.0,90,0.00,,---,0.00,0.00,VWS V14.01,2013-05-23 10:07:00,
2013-05-23 05:10:00,50.8,48.0,29.87,North,0,1.0,6.0,90,0.00,,---,0.00,0.00,VWS V14.01,2013-05-23 10:10:00,
2013-05-23 05:12:00,50.8,48.0,29.87,North,359,3.0,4.0,90,0.00,,---,0.00,0.00,VWS V14.01,2013-05-23 10:12:00,
2013-05-23 05:15:00,50.7,47.9,29.87,North,0,3.0,4.0,90,0.00,,---,0.00,0.00,VWS V14.01,2013-05-23 10:15:00,
2013-05-23 05:17:00,50.5,47.7,29.87,North,0,3.0,4.0,90,0.00,,---,0.00,0.00,VWS V14.01,2013-05-23 10:17:00,
2013-05-23 05:20:00,50.5,48.0,29.87,North,4,2.0,6.0,91,0.00,,---,0.00,0.00,VWS V14.01,2013-05-23 10:20:00,
2013-05-23 05:22:00,50.5,48.0,29.87,NE,51,3.0,6.0,91,0.00,,---,0.00,0.00,VWS V14.01,2013-05-23 10:22:00,
2013-05-23 05:25:00,50.4,47.9,29.87,NNE,17,3.0,6.0,91,0.00,,---,0.00,0.00,VWS V14.01,2013-05-23 10:25:00,
2013-05-23 05:27:00,50.4,47.9,29.87,North,0,4.0,6.0,91,0.00,,---,0.00,0.00,VWS V14.01,2013-05-23 10:27:00,
2013-05-23 05:30:00,50.5,48.0,29.87,NNE,20,7.0,7.0,91,0.00,,---,0.00,0.00,VWS V14.01,2013-05-23 10:30:00,
2013-05-23 05:32:00,50.5,48.0,29.87,ENE,61,5.0,7.0,91,0.00,,---,0.00,0.00,VWS V14.01,2013-05-23 10:32:00,
2013-05-23 05:35:00,50.5,48.0,29.87,North,0,6.0,8.0,91,0.00,,---,0.00,0.00,VWS V14.01,2013-05-23 10:35:00,
2013-05-23 05:37:00,50.7,48.2,29.87,North,6,5.0,7.0,91,0.00,,---,0.00,0.00,VWS V14.01,2013-05-23 10:37:00,
2013-05-23 05:40:00,50.7,48.5,29.87,North,359,2.0,7.0,92,0.00,,---,0.00,0.00,VWS V14.01,2013-05-23 10:40:00,
2013-05-23 05:42:00,50.5,48.3,29.87,North,354,2.0,2.0,92,0.00,,---,0.00,0.00,VWS V14.01,2013-05-23 10:42:00,
2013-05-23 05:45:00,50.5,48.3,29.88,North,0,2.0,3.0,92,0.00,,---,0.00,0.00,VWS V14.01,2013-05-23 10:45:00,
2013-05-23 05:48:00,50.5,48.3,29.88,NNE,18,3.0,6.0,92,0.00,,---,0.00,0.00,VWS V14.01,2013-05-23 10:48:00,
2013-05-23 05:50:00,50.5,48.3,29.88,North,0,4.0,6.0,92,0.00,,---,0.00,0.00,VWS V14.01,2013-05-23 10:50:00,
2013-05-23 05:53:00,50.5,48.3,29.88,North,0,3.0,5.0,92,0.00,,---,0.00,0.00,VWS V14.01,2013-05-23 10:53:00,
2013-05-23 05:55:00,50.4,48.2,29.88,NNE,28,5.0,6.0,92,0.00,,---,0.00,0.00,VWS V14.01,2013-05-23 10:55:00,
2013-05-23 05:58:00,50.4,48.2,29.88,North,0,5.0,7.0,92,0.00,,---,0.00,0.00,VWS V14.01,2013-05-23 10:58:00,
2013-05-23 06:00:00,50.4,48.2,29.88,North,6,5.0,7.0,92,0.00,,---,0.00,0.00,VWS V14.01,2013-05-23 11:00:00,
2013-05-23 06:03:00,50.5,48.3,29.88,North,6,6.0,7.0,92,0.00,,---,0.00,0.00,VWS V14.01,2013-05-23 11:03:00,
2013-05-23 06:05:00,50.5,48.3,29.88,North,0,7.0,7.0,92,0.00,,---,0.00,0.00,VWS V14.01,2013-05-23 11:05:00,
2013-05-23 06:08:00,50.5,48.3,29.88,North,0,7.0,8.0,92,0.00,,---,0.00,0.00,VWS V14.01,2013-05-23 11:08:00,
2013-05-23 06:10:00,50.5,48.3,29.88,North,0,4.0,8.0,92,0.00,,---,0.00,0.00,VWS V14.01,2013-05-23 11:10:00,
2013-05-23 06:13:00,50.5,48.3,29.88,NNE,27,6.0,9.0,92,0.00,,---,0.00,0.00,VWS V14.01,2013-05-23 11:13:00,
2013-05-23 06:15:00,50.5,48.3,29.89,NNE,17,5.0,9.0,92,0.00,,---,0.00,0.00,VWS V14.01,2013-05-23 11:15:00,
2013-05-23 06:18:00,50.5,48.0,29.89,NNE,20,6.0,8.0,91,0.00,,---,0.00,5.00,VWS V14.01,2013-05-23 11:18:00,
2013-05-23 06:20:00,50.5,48.0,29.89,ENE,59,7.0,10.0,91,0.00,,---,0.00,5.00,VWS V14.01,2013-05-23 11:20:00,
2013-05-23 06:23:00,50.5,48.0,29.89,NNE,30,2.0,9.0,91,0.00,,---,0.00,11.00,VWS V14.01,2013-05-23 11:23:00,
2013-05-23 06:25:00,50.7,48.2,29.89,NNE,23,6.0,9.0,91,0.00,,---,0.00,11.00,VWS V14.01,2013-05-23 11:25:00,
2013-05-23 06:28:00,50.5,48.0,29.89,NNE,24,5.0,8.0,91,0.00,,---,0.00,14.00,VWS V14.01,2013-05-23 11:28:00,
2013-05-23 06:30:00,50.5,48.0,29.89,NNE,30,5.0,9.0,91,0.00,,---,0.00,21.00,VWS V14.01,2013-05-23 11:30:00,
2013-05-23 06:33:00,50.7,48.2,29.89,NNE,23,3.0,6.0,91,0.00,,---,0.00,21.00,VWS V14.01,2013-05-23 11:33:00,
2013-05-23 06:35:00,50.7,48.2,29.89,ENE,61,3.0,6.0,91,0.00,,---,0.00,25.00,VWS V14.01,2013-05-23 11:35:00,
2013-05-23 06:38:00,50.7,48.2,29.89,WSW,258,3.0,6.0,91,0.00,,---,0.00,32.00,VWS V14.01,2013-05-23 11:38:00,
2013-05-23 06:40:00,50.7,48.2,29.89,North,0,3.0,6.0,91,0.00,,---,0.00,32.00,VWS V14.01,2013-05-23 11:40:00,
2013-05-23 06:43:00,50.7,48.2,29.89,North,0,3.0,6.0,91,0.00,,---,0.00,46.00,VWS V14.01,2013-05-23 11:43:00,
2013-05-23 06:45:00,50.8,48.3,29.90,North,0,3.0,6.0,91,0.00,,---,0.00,46.00,VWS V14.01,2013-05-23 11:45:00,
2013-05-23 06:48:00,50.8,48.3,29.90,North,356,5.0,6.0,91,0.00,,---,0.00,55.00,VWS V14.01,2013-05-23 11:48:00,
2013-05-23 06:50:00,50.8,48.0,29.90,NNE,16,5.0,7.0,90,0.00,,---,0.00,55.00,VWS V14.01,2013-05-23 11:50:00,
2013-05-23 06:53:00,50.8,48.0,29.90,NE,42,3.0,8.0,90,0.00,,---,0.00,77.00,VWS V14.01,2013-05-23 11:53:00,
2013-05-23 06:55:00,51.0,48.2,29.90,NNE,23,6.0,8.0,90,0.00,,---,0.00,81.00,VWS V14.01,2013-05-23 11:55:00,
2013-05-23 06:59:00,51.0,48.2,29.90,NNE,21,7.0,9.0,90,0.00,,---,0.00,90.00,VWS V14.01,2013-05-23 11:59:00,
2013-05-23 07:00:00,51.0,48.2,29.91,NE,37,6.0,9.0,90,0.00,,---,0.00,93.00,VWS V14.01,2013-05-23 12:00:00,
2013-05-23 07:04:00,51.1,48.3,29.91,North,1,5.0,8.0,90,0.00,,---,0.00,100.00,VWS V14.01,2013-05-23 12:04:00,
2013-05-23 07:05:00,51.1,48.3,29.91,NNE,16,6.0,8.0,90,0.00,,---,0.00,109.00,VWS V14.01,2013-05-23 12:05:00,
2013-05-23 07:09:00,51.3,48.2,29.91,NNW,347,6.0,11.0,89,0.00,,---,0.00,106.00,VWS V14.01,2013-05-23 12:09:00,
2013-05-23 07:10:00,51.3,48.2,29.91,North,0,6.0,11.0,89,0.00,,---,0.00,111.00,VWS V14.01,2013-05-23 12:10:00,
2013-05-23 07:14:00,51.4,48.3,29.91,North,350,3.0,7.0,89,0.00,,---,0.00,120.00,VWS V14.01,2013-05-23 12:14:00,
2013-05-23 07:15:00,51.6,48.5,29.92,North,8,6.0,7.0,89,0.00,,---,0.00,125.00,VWS V14.01,2013-05-23 12:15:00,
2013-05-23 07:19:00,51.4,48.0,29.92,North,4,3.0,10.0,88,0.00,,---,0.00,135.00,VWS V14.01,2013-05-23 12:19:00,
2013-05-23 07:20:00,51.6,48.5,29.92,North,0,6.0,10.0,89,0.00,,---,0.00,143.00,VWS V14.01,2013-05-23 12:20:00,
2013-05-23 07:24:00,51.6,48.2,29.92,North,0,7.0,11.0,88,0.00,,---,0.00,155.00,VWS V14.01,2013-05-23 12:24:00,
2013-05-23 07:25:00,51.6,48.2,29.92,North,0,5.0,11.0,88,0.00,,---,0.00,164.00,VWS V14.01,2013-05-23 12:25:00,
2013-05-23 07:29:00,51.7,48.3,29.92,North,0,11.0,12.0,88,0.00,,---,0.00,181.00,VWS V14.01,2013-05-23 12:29:00,
2013-05-23 07:30:00,51.7,48.3,29.92,NNE,21,10.0,12.0,88,0.00,,---,0.00,192.00,VWS V14.01,2013-05-23 12:30:00,
2013-05-23 07:34:00,51.9,48.2,29.92,NNE,32,8.0,15.0,87,0.00,,---,0.00,206.00,VWS V14.01,2013-05-23 12:34:00,
2013-05-23 07:35:00,52.0,48.3,29.92,North,0,7.0,15.0,87,0.00,,---,0.00,211.00,VWS V14.01,2013-05-23 12:35:00,
2013-05-23 07:39:00,52.0,48.3,29.92,NNE,21,5.0,12.0,87,0.00,,---,0.00,232.00,VWS V14.01,2013-05-23 12:39:00,
2013-05-23 07:40:00,52.2,48.5,29.92,NE,42,7.0,12.0,87,0.00,,---,0.00,238.00,VWS V14.01,2013-05-23 12:40:00,
2013-05-23 07:44:00,52.2,48.5,29.92,NNE,28,11.0,16.0,87,0.00,,---,0.00,269.00,VWS V14.01,2013-05-23 12:44:00,
2013-05-23 07:45:00,52.2,48.2,29.92,NE,40,8.0,16.0,86,0.00,,---,0.00,274.00,VWS V14.01,2013-05-23 12:45:00,
2013-05-23 07:49:00,52.3,48.2,29.92,NNE,25,12.0,14.0,86,0.00,,---,0.00,120.00,VWS V14.01,2013-05-23 12:49:00,
2013-05-23 07:50:00,52.2,48.2,29.92,ENE,62,10.0,14.0,86,0.00,,---,0.00,128.00,VWS V14.01,2013-05-23 12:50:00,
2013-05-23 07:54:00,52.0,48.0,29.92,ENE,69,13.0,17.0,86,0.00,,---,0.00,121.00,VWS V14.01,2013-05-23 12:54:00,
2013-05-23 07:55:00,52.0,48.0,29.92,North,0,8.0,17.0,86,0.00,,---,0.00,130.00,VWS V14.01,2013-05-23 12:55:00,
2013-05-23 07:59:00,52.2,48.2,29.92,NNE,24,12.0,16.0,86,0.00,,---,0.00,171.00,VWS V14.01,2013-05-23 12:59:00,
2013-05-23 08:00:00,52.2,48.2,29.92,NNE,24,7.0,16.0,86,0.00,,---,0.00,310.00,VWS V14.01,2013-05-23 13:00:00,
2013-05-23 08:04:00,52.3,48.2,29.92,NNE,30,10.0,17.0,86,0.00,,---,0.00,278.00,VWS V14.01,2013-05-23 13:04:00,
2013-05-23 08:05:00,52.5,48.4,29.92,NE,42,10.0,17.0,86,0.00,,---,0.00,315.00,VWS V14.01,2013-05-23 13:05:00,
2013-05-23 08:09:00,52.8,48.4,29.92,NNE,24,13.0,18.0,85,0.00,,---,0.00,315.00,VWS V14.01,2013-05-23 13:09:00,
2013-05-23 08:10:00,52.8,48.4,29.92,North,0,11.0,18.0,85,0.00,,---,0.00,324.00,VWS V14.01,2013-05-23 13:10:00,
2013-05-23 08:15:00,52.9,48.2,29.93,North,0,14.0,19.0,84,0.00,,---,0.00,348.00,VWS V14.01,2013-05-23 13:15:00,
2013-05-23 08:20:00,53.2,48.2,29.93,NNE,25,13.0,21.0,83,0.00,,---,0.00,375.00,VWS V14.01,2013-05-23 13:20:00,
2013-05-23 08:25:00,53.5,48.5,29.93,NE,51,15.0,16.0,83,0.00,,---,0.00,378.00,VWS V14.01,2013-05-23 13:25:00,
2013-05-23 08:30:00,53.8,48.4,29.92,NNE,30,13.0,16.0,82,0.00,,---,0.00,422.00,VWS V14.01,2013-05-23 13:30:00,
2013-05-23 08:35:00,54.4,49.0,29.92,NNW,344,6.0,13.0,82,0.00,,---,0.00,389.00,VWS V14.01,2013-05-23 13:35:00,
2013-05-23 08:40:00,54.4,48.7,29.92,NNE,24,12.0,16.0,81,0.00,,---,0.00,401.00,VWS V14.01,2013-05-23 13:40:00,
2013-05-23 08:45:00,54.5,48.5,29.91,NNW,333,14.0,17.0,80,0.00,,---,0.00,417.00,VWS V14.01,2013-05-23 13:45:00,
2013-05-23 08:50:00,54.7,48.3,29.91,NNE,28,19.0,22.0,79,0.00,,---,0.00,366.00,VWS V14.01,2013-05-23 13:50:00,
2013-05-23 08:55:00,54.8,48.4,29.91,NE,38,20.0,20.0,79,0.00,,---,0.00,477.00,VWS V14.01,2013-05-23 13:55:00,
2013-05-23 09:00:00,55.1,48.7,29.91,ENE,69,10.0,20.0,79,0.00,,---,0.00,473.00,VWS V14.01,2013-05-23 14:00:00,
2013-05-23 09:05:00,55.1,48.7,29.91,NE,47,14.0,19.0,79,0.00,,---,0.00,257.00,VWS V14.01,2013-05-23 14:05:00,
2013-05-23 09:10:00,55.1,48.7,29.91,NE,52,8.0,18.0,79,0.00,,---,0.00,311.00,VWS V14.01,2013-05-23 14:10:00,
2013-05-23 09:15:00,55.4,49.0,29.92,East,90,14.0,14.0,79,0.00,,---,0.00,306.00,VWS V14.01,2013-05-23 14:15:00,
2013-05-23 09:20:00,55.9,49.2,29.92,East,86,18.0,18.0,78,0.00,,---,0.00,640.00,VWS V14.01,2013-05-23 14:20:00,
2013-05-23 09:25:00,56.0,48.9,29.92,NE,37,12.0,18.0,77,0.00,,---,0.00,633.00,VWS V14.01,2013-05-23 14:25:00,
2013-05-23 09:26:00,56.0,48.9,29.92,ENE,71,12.0,12.0,77,0.00,,---,0.00,633.00,VWS V14.01,2013-05-23 14:26:00,
2013-05-23 09:30:00,56.3,48.8,29.92,NNE,32,12.0,19.0,76,0.00,,---,0.00,633.00,VWS V14.01,2013-05-23 14:30:00,
2013-05-23 09:31:00,56.3,48.8,29.92,NE,40,11.0,12.0,76,0.00,,---,0.00,633.00,VWS V14.01,2013-05-23 14:31:00,
2013-05-23 09:35:00,56.9,49.4,29.92,WSW,251,12.0,19.0,76,0.00,,---,0.00,357.00,VWS V14.01,2013-05-23 14:35:00,
2013-05-23 09:36:00,57.0,49.5,29.92,NNW,332,16.0,16.0,76,0.00,,---,0.00,357.00,VWS V14.01,2013-05-23 14:36:00,
2013-05-23 09:40:00,56.9,49.1,29.92,SSW,198,14.0,18.0,75,0.00,,---,0.00,262.00,VWS V14.01,2013-05-23 14:40:00,
2013-05-23 09:41:00,56.7,48.9,29.92,WSW,244,13.0,14.0,75,0.00,,---,0.00,262.00,VWS V14.01,2013-05-23 14:41:00,
2013-05-23 09:45:00,56.7,49.2,29.92,NE,45,12.0,17.0,76,0.00,,---,0.00,317.00,VWS V14.01,2013-05-23 14:45:00,
2013-05-23 09:50:00,57.5,50.4,29.92,NE,45,9.0,15.0,77,0.00,,---,0.00,377.00,VWS V14.01,2013-05-23 14:50:00,
2013-05-23 09:55:00,57.5,49.3,29.92,SSW,202,11.0,16.0,74,0.00,,---,0.00,377.00,VWS V14.01,2013-05-23 14:55:00,
2013-05-23 10:00:00,57.2,49.4,29.92,North,0,14.0,18.0,75,0.00,,---,0.00,337.00,VWS V14.01,2013-05-23 15:00:00,
2013-05-23 10:05:00,57.2,49.4,29.92,West,270,12.0,15.0,75,0.00,,---,0.00,336.00,VWS V14.01,2013-05-23 15:05:00,
2013-05-23 10:10:00,58.0,49.8,29.92,NNW,338,14.0,21.0,74,0.00,,---,0.00,741.00,VWS V14.01,2013-05-23 15:10:00,
2013-05-23 10:15:00,58.0,49.8,29.94,North,0,9.0,14.0,74,0.00,,---,0.00,743.00,VWS V14.01,2013-05-23 15:15:00,
2013-05-23 10:20:00,58.4,50.2,29.94,ENE,68,12.0,16.0,74,0.00,,---,0.00,743.00,VWS V14.01,2013-05-23 15:20:00,
2013-05-23 10:25:00,57.8,49.6,29.94,NNW,338,13.0,18.0,74,0.00,,---,0.00,398.00,VWS V14.01,2013-05-23 15:25:00,
2013-05-23 10:30:00,58.0,49.8,29.94,WSW,248,10.0,14.0,74,0.00,,---,0.00,398.00,VWS V14.01,2013-05-23 15:30:00,
2013-05-23 10:35:00,57.5,49.3,29.94,WSW,248,14.0,17.0,74,0.00,,---,0.00,398.00,VWS V14.01,2013-05-23 15:35:00,
2013-05-23 10:40:00,58.0,50.1,29.94,East,90,12.0,17.0,75,0.00,,---,0.00,410.00,VWS V14.01,2013-05-23 15:40:00,
2013-05-23 10:45:00,57.8,49.6,29.94,North,0,12.0,16.0,74,0.00,,---,0.00,410.00,VWS V14.01,2013-05-23 15:45:00,
2013-05-23 10:50:00,57.6,49.8,29.94,North,0,12.0,17.0,75,0.00,,---,0.00,410.00,VWS V14.01,2013-05-23 15:50:00,
2013-05-23 10:55:00,57.8,49.9,29.94,North,0,10.0,17.0,75,0.00,,---,0.00,385.00,VWS V14.01,2013-05-23 15:55:00,
2013-05-23 11:00:00,57.5,49.7,29.95,East,90,10.0,17.0,75,0.00,,---,0.00,355.00,VWS V14.01,2013-05-23 16:00:00,
2013-05-23 11:05:00,57.5,49.7,29.95,ENE,68,8.0,13.0,75,0.00,,---,0.00,338.00,VWS V14.01,2013-05-23 16:05:00,
2013-05-23 11:10:00,57.5,49.7,29.95,North,0,10.0,14.0,75,0.00,,---,0.00,350.00,VWS V14.01,2013-05-23 16:10:00,
2013-05-23 11:15:00,57.8,49.9,29.96,North,0,9.0,14.0,75,0.00,,---,0.00,357.00,VWS V14.01,2013-05-23 16:15:00,
2013-05-23 11:20:00,57.6,49.8,29.96,North,0,8.0,12.0,75,0.00,,---,0.00,335.00,VWS V14.01,2013-05-23 16:20:00,
2013-05-23 11:25:00,58.1,50.2,29.96,ENE,68,8.0,11.0,75,0.00,,---,0.00,394.00,VWS V14.01,2013-05-23 16:25:00,
2013-05-23 11:30:00,58.3,50.1,29.96,North,0,8.0,11.0,74,0.00,,---,0.00,373.00,VWS V14.01,2013-05-23 16:30:00,
2013-05-23 11:35:00,58.3,49.7,29.96,North,0,7.0,11.0,73,0.00,,---,0.00,390.00,VWS V14.01,2013-05-23 16:35:00,
2013-05-23 11:40:00,58.3,50.1,29.96,East,90,4.0,6.0,74,0.00,,---,0.00,401.00,VWS V14.01,2013-05-23 16:40:00,
2013-05-23 11:45:00,58.6,50.0,29.97,ENE,68,6.0,7.0,73,0.00,,---,0.00,401.00,VWS V14.01,2013-05-23 16:45:00,
2013-05-23 11:50:00,59.0,50.0,29.97,East,90,6.0,11.0,72,0.00,,---,0.00,401.00,VWS V14.01,2013-05-23 16:50:00,
2013-05-23 11:55:00,59.2,50.2,29.97,East,90,7.0,8.0,72,0.00,,---,0.00,464.00,VWS V14.01,2013-05-23 16:55:00,
2013-05-23 12:00:00,59.2,50.2,29.98,ENE,68,5.0,8.0,72,0.00,,---,0.00,457.00,VWS V14.01,2013-05-23 17:00:00,
2013-05-23 12:05:00,59.5,50.8,29.98,East,90,7.0,10.0,73,0.00,,---,0.00,457.00,VWS V14.01,2013-05-23 17:05:00,
2013-05-23 12:10:00,59.3,50.7,29.98,NE,45,7.0,10.0,73,0.00,,---,0.00,419.00,VWS V14.01,2013-05-23 17:10:00,
2013-05-23 12:15:00,59.8,50.4,29.98,SE,135,8.0,13.0,71,0.00,,---,0.00,389.00,VWS V14.01,2013-05-23 17:15:00,
2013-05-23 12:20:00,59.9,50.1,29.98,East,90,9.0,13.0,70,0.00,,---,0.00,403.00,VWS V14.01,2013-05-23 17:20:00,
2013-05-23 12:25:00,60.4,50.6,29.98,East,90,6.0,10.0,70,0.00,,---,0.00,475.00,VWS V14.01,2013-05-23 17:25:00,
2013-05-23 12:30:00,60.9,51.1,29.97,ENE,68,7.0,11.0,70,0.00,,---,0.00,478.00,VWS V14.01,2013-05-23 17:30:00,
2013-05-23 12:35:00,60.9,50.7,29.97,East,90,7.0,11.0,69,0.00,,---,0.00,473.00,VWS V14.01,2013-05-23 17:35:00,
2013-05-23 12:40:00,60.9,50.7,29.97,East,90,6.0,11.0,69,0.00,,---,0.00,485.00,VWS V14.01,2013-05-23 17:40:00,
2013-05-23 12:45:00,61.5,51.2,29.97,East,90,7.0,11.0,69,0.00,,---,0.00,484.00,VWS V14.01,2013-05-23 17:45:00,
2013-05-23 12:50:00,61.6,50.5,29.97,East,90,7.0,12.0,67,0.00,,---,0.00,585.00,VWS V14.01,2013-05-23 17:50:00,
2013-05-23 12:55:00,62.0,50.9,29.97,East,90,6.0,10.0,67,0.00,,---,0.00,546.00,VWS V14.01,2013-05-23 17:55:00,
2013-05-23 13:00:00,61.8,50.7,29.97,ENE,68,7.0,13.0,67,0.00,,---,0.00,502.00,VWS V14.01,2013-05-23 18:00:00,
2013-05-23 13:05:00,62.0,50.9,29.97,ENE,68,8.0,11.0,67,0.00,,---,0.00,505.00,VWS V14.01,2013-05-23 18:05:00,
2013-05-23 13:10:00,62.4,51.3,29.97,ENE,68,7.0,14.0,67,0.00,,---,0.00,540.00,VWS V14.01,2013-05-23 18:10:00,
2013-05-23 13:15:00,62.4,51.3,29.96,WSW,248,7.0,8.0,67,0.00,,---,0.00,537.00,VWS V14.01,2013-05-23 18:15:00,
2013-05-23 13:20:00,62.9,51.0,29.96,NW,315,7.0,11.0,65,0.00,,---,0.00,486.00,VWS V14.01,2013-05-23 18:20:00,
2013-05-23 13:25:00,62.6,50.7,29.96,ENE,68,7.0,11.0,65,0.00,,---,0.00,456.00,VWS V14.01,2013-05-23 18:25:00,
2013-05-23 13:30:00,62.9,51.0,29.96,North,0,6.0,7.0,65,0.00,,---,0.00,489.00,VWS V14.01,2013-05-23 18:30:00,
2013-05-23 13:35:00,63.2,50.8,29.96,ENE,68,7.0,8.0,64,0.00,,---,0.00,510.00,VWS V14.01,2013-05-23 18:35:00,
2013-05-23 13:40:00,63.4,51.0,29.96,South,180,7.0,11.0,64,0.00,,---,0.00,400.00,VWS V14.01,2013-05-23 18:40:00,
2013-05-23 13:45:00,63.9,51.9,29.96,North,0,5.0,8.0,65,0.00,,---,0.00,401.00,VWS V14.01,2013-05-23 18:45:00,
2013-05-23 13:50:00,64.7,51.8,29.96,ESE,112,6.0,8.0,63,0.00,,---,0.00,401.00,VWS V14.01,2013-05-23 18:50:00,
2013-05-23 13:55:00,65.5,51.7,29.96,ESE,112,7.0,12.0,61,0.00,,---,0.00,1170.00,VWS V14.01,2013-05-23 18:55:00,
2013-05-23 14:00:00,65.8,51.5,29.96,South,180,8.0,9.0,60,0.00,,---,0.00,1170.00,VWS V14.01,2013-05-23 19:00:00,
2013-05-23 14:05:00,66.4,51.7,29.96,ESE,112,8.0,13.0,59,0.00,,---,0.00,1170.00,VWS V14.01,2013-05-23 19:05:00,
2013-05-23 14:10:00,66.4,51.7,29.96,East,90,10.0,12.0,59,0.00,,---,0.00,1170.00,VWS V14.01,2013-05-23 19:10:00,
2013-05-23 14:15:00,66.1,51.4,29.96,East,90,8.0,12.0,59,0.00,,---,0.00,1170.00,VWS V14.01,2013-05-23 19:15:00,
2013-05-23 14:20:00,66.6,51.8,29.96,NW,315,8.0,13.0,59,0.00,,---,0.00,897.00,VWS V14.01,2013-05-23 19:20:00,
2013-05-23 14:25:00,66.9,52.1,29.96,ESE,112,9.0,14.0,59,0.00,,---,0.00,1033.00,VWS V14.01,2013-05-23 19:25:00,
2013-05-23 14:30:00,67.1,52.3,29.95,East,90,7.0,14.0,59,0.00,,---,0.00,1033.00,VWS V14.01,2013-05-23 19:30:00,
2013-05-23 14:35:00,66.8,51.6,29.95,ENE,68,9.0,17.0,58,0.00,,---,0.00,929.00,VWS V14.01,2013-05-23 19:35:00,
2013-05-23 14:40:00,66.8,52.0,29.95,East,90,7.0,15.0,59,0.00,,---,0.00,1057.00,VWS V14.01,2013-05-23 19:40:00,
2013-05-23 14:45:00,66.9,52.6,29.95,SE,135,9.0,16.0,60,0.00,,---,0.00,950.00,VWS V14.01,2013-05-23 19:45:00,
2013-05-23 14:50:00,67.3,53.0,29.95,NW,315,9.0,12.0,60,0.00,,---,0.00,948.00,VWS V14.01,2013-05-23 19:50:00,
2013-05-23 14:55:00,66.9,52.1,29.95,ESE,112,10.0,14.0,59,0.00,,---,0.00,962.00,VWS V14.01,2013-05-23 19:55:00,
2013-05-23 15:00:00,66.9,52.6,29.94,North,0,7.0,10.0,60,0.00,,---,0.00,889.00,VWS V14.01,2013-05-23 20:00:00,
2013-05-23 15:05:00,67.3,53.0,29.94,NW,315,11.0,17.0,60,0.00,,---,0.00,889.00,VWS V14.01,2013-05-23 20:05:00,
2013-05-23 15:10:00,67.4,53.5,29.94,SSW,202,10.0,13.0,61,0.00,,---,0.00,869.00,VWS V14.01,2013-05-23 20:10:00,
2013-05-23 15:15:00,68.1,52.8,29.94,NNW,338,9.0,12.0,58,0.00,,---,0.00,861.00,VWS V14.01,2013-05-23 20:15:00,
2013-05-23 15:20:00,68.1,52.3,29.94,SSW,202,7.0,8.0,57,0.00,,---,0.00,864.00,VWS V14.01,2013-05-23 20:20:00,
2013-05-23 15:25:00,68.6,52.8,29.94,NNW,338,9.0,14.0,57,0.00,,---,0.00,906.00,VWS V14.01,2013-05-23 20:25:00,
2013-05-23 15:30:00,68.1,52.3,29.94,East,90,10.0,14.0,57,0.00,,---,0.00,872.00,VWS V14.01,2013-05-23 20:30:00,
2013-05-23 15:35:00,68.4,53.1,29.94,NNW,338,6.0,11.0,58,0.00,,---,0.00,867.00,VWS V14.01,2013-05-23 20:35:00,
2013-05-23 15:40:00,68.4,53.1,29.94,North,0,9.0,16.0,58,0.00,,---,0.00,867.00,VWS V14.01,2013-05-23 20:40:00,
2013-05-23 15:45:00,68.4,53.1,29.94,North,0,9.0,12.0,58,0.00,,---,0.00,340.00,VWS V14.01,2013-05-23 20:45:00,
2013-05-23 15:50:00,68.8,53.0,29.94,North,0,8.0,13.0,57,0.00,,---,0.00,340.00,VWS V14.01,2013-05-23 20:50:00,
2013-05-23 15:55:00,68.9,52.6,29.94,West,270,9.0,13.0,56,0.00,,---,0.00,818.00,VWS V14.01,2013-05-23 20:55:00,
2013-05-23 16:00:00,69.1,52.3,29.94,SSW,202,5.0,11.0,55,0.00,,---,0.00,829.00,VWS V14.01,2013-05-23 21:00:00,
2013-05-23 16:05:00,68.9,53.5,29.94,North,0,7.0,13.0,58,0.00,,---,0.00,829.00,VWS V14.01,2013-05-23 21:05:00,
2013-05-23 16:10:00,68.8,52.5,29.94,North,0,9.0,13.0,56,0.00,,---,0.00,788.00,VWS V14.01,2013-05-23 21:10:00,
2013-05-23 16:15:00,69.4,53.0,29.94,North,0,7.0,12.0,56,0.00,,---,0.00,756.00,VWS V14.01,2013-05-23 21:15:00,
2013-05-23 16:20:00,69.8,52.9,29.94,ESE,112,7.0,14.0,55,0.00,,---,0.00,757.00,VWS V14.01,2013-05-23 21:20:00,
2013-05-23 16:25:00,69.6,52.7,29.94,North,0,11.0,16.0,55,0.00,,---,0.00,802.00,VWS V14.01,2013-05-23 21:25:00,
2013-05-23 16:30:00,69.8,52.4,29.93,North,0,8.0,12.0,54,0.00,,---,0.00,713.00,VWS V14.01,2013-05-23 21:30:00,
2013-05-23 16:35:00,70.1,53.2,29.93,NW,315,7.0,11.0,55,0.00,,---,0.00,693.00,VWS V14.01,2013-05-23 21:35:00,
2013-05-23 16:40:00,70.3,53.4,29.93,East,90,6.0,10.0,55,0.00,,---,0.00,680.00,VWS V14.01,2013-05-23 21:40:00,
2013-05-23 16:45:00,70.4,53.5,29.93,North,0,5.0,12.0,55,0.00,,---,0.00,667.00,VWS V14.01,2013-05-23 21:45:00,
2013-05-23 16:50:00,69.9,52.5,29.93,WNW,292,9.0,13.0,54,0.00,,---,0.00,674.00,VWS V14.01,2013-05-23 21:50:00,
2013-05-23 16:55:00,70.4,52.5,29.93,NNW,338,9.0,13.0,53,0.00,,---,0.00,650.00,VWS V14.01,2013-05-23 21:55:00,
2013-05-23 17:00:00,70.3,52.4,29.93,North,0,9.0,12.0,53,0.00,,---,0.00,628.00,VWS V14.01,2013-05-23 22:00:00,
2013-05-23 17:05:00,70.6,53.2,29.93,SSW,202,6.0,12.0,54,0.00,,---,0.00,612.00,VWS V14.01,2013-05-23 22:05:00,
2013-05-23 17:10:00,70.8,51.8,29.93,ESE,112,8.0,12.0,51,0.00,,---,0.00,596.00,VWS V14.01,2013-05-23 22:10:00,
2013-05-23 17:15:00,70.9,51.9,29.93,East,90,5.0,8.0,51,0.00,,---,0.00,580.00,VWS V14.01,2013-05-23 22:15:00,
2013-05-23 17:20:00,70.9,52.4,29.93,North,0,7.0,14.0,52,0.00,,---,0.00,572.00,VWS V14.01,2013-05-23 22:20:00,
2013-05-23 17:25:00,70.6,50.5,29.93,North,0,9.0,12.0,49,0.00,,---,0.00,550.00,VWS V14.01,2013-05-23 22:25:00,
2013-05-23 17:30:00,70.8,51.3,29.93,North,0,7.0,11.0,50,0.00,,---,0.00,538.00,VWS V14.01,2013-05-23 22:30:00,
2013-05-23 17:35:00,70.8,52.3,29.93,North,0,8.0,13.0,52,0.00,,---,0.00,500.00,VWS V14.01,2013-05-23 22:35:00,
2013-05-23 17:40:00,70.6,52.1,29.93,North,0,9.0,12.0,52,0.00,,---,0.00,503.00,VWS V14.01,2013-05-23 22:40:00,
2013-05-23 17:45:00,70.8,52.8,29.93,North,0,7.0,11.0,53,0.00,,---,0.00,481.00,VWS V14.01,2013-05-23 22:45:00,
2013-05-23 17:50:00,70.6,52.7,29.93,North,0,9.0,13.0,53,0.00,,---,0.00,462.00,VWS V14.01,2013-05-23 22:50:00,
2013-05-23 17:55:00,70.8,52.3,29.93,North,0,7.0,12.0,52,0.00,,---,0.00,461.00,VWS V14.01,2013-05-23 22:55:00,
2013-05-23 18:00:00,71.1,52.6,29.92,North,0,8.0,13.0,52,0.00,,---,0.00,442.00,VWS V14.01,2013-05-23 23:00:00,
2013-05-23 18:05:00,71.1,52.6,29.92,North,0,7.0,10.0,52,0.00,,---,0.00,424.00,VWS V14.01,2013-05-23 23:05:00,
2013-05-23 18:10:00,71.1,52.6,29.92,North,0,12.0,14.0,52,0.00,,---,0.00,412.00,VWS V14.01,2013-05-23 23:10:00,
2013-05-23 18:15:00,70.9,52.4,29.92,West,270,6.0,10.0,52,0.00,,---,0.00,392.00,VWS V14.01,2013-05-23 23:15:00,
2013-05-23 18:20:00,70.9,51.9,29.92,NNW,338,7.0,11.0,51,0.00,,---,0.00,377.00,VWS V14.01,2013-05-23 23:20:00,
2013-05-23 18:25:00,71.1,53.1,29.92,NW,315,6.0,7.0,53,0.00,,---,0.00,354.00,VWS V14.01,2013-05-23 23:25:00,
2013-05-23 18:30:00,71.1,52.6,29.92,North,0,5.0,7.0,52,0.00,,---,0.00,337.00,VWS V14.01,2013-05-23 23:30:00,
2013-05-23 18:35:00,70.9,52.9,29.92,North,0,5.0,8.0,53,0.00,,---,0.00,311.00,VWS V14.01,2013-05-23 23:35:00,
2013-05-23 18:40:00,71.1,52.6,29.92,North,0,6.0,7.0,52,0.00,,---,0.00,303.00,VWS V14.01,2013-05-23 23:40:00,
2013-05-23 18:45:00,70.9,52.4,29.92,East,90,5.0,8.0,52,0.00,,---,0.00,303.00,VWS V14.01,2013-05-23 23:45:00,
2013-05-23 18:50:00,70.8,52.3,29.92,North,0,7.0,11.0,52,0.00,,---,0.00,285.00,VWS V14.01,2013-05-23 23:50:00,
2013-05-23 18:55:00,70.6,53.2,29.92,NW,315,7.0,13.0,54,0.00,,---,0.00,283.00,VWS V14.01,2013-05-23 23:55:00,
2013-05-23 19:00:00,70.4,52.5,29.92,North,0,6.0,11.0,53,0.00,,---,0.00,260.00,VWS V14.01,2013-05-24 00:00:00,
2013-05-23 19:05:00,70.4,53.0,29.92,North,0,5.0,9.0,54,0.00,,---,0.00,257.00,VWS V14.01,2013-05-24 00:05:00,
2013-05-23 19:10:00,70.1,52.7,29.92,North,0,9.0,11.0,54,0.00,,---,0.00,215.00,VWS V14.01,2013-05-24 00:10:00,
2013-05-23 19:15:00,69.9,53.0,29.92,North,0,9.0,12.0,55,0.00,,---,0.00,188.00,VWS V14.01,2013-05-24 00:15:00,
2013-05-23 19:20:00,69.9,52.5,29.92,North,0,8.0,12.0,54,0.00,,---,0.00,179.00,VWS V14.01,2013-05-24 00:20:00,
2013-05-23 19:25:00,69.6,52.2,29.92,North,0,9.0,12.0,54,0.00,,---,0.00,130.00,VWS V14.01,2013-05-24 00:25:00,
2013-05-23 19:30:00,69.4,52.5,29.92,North,0,6.0,10.0,55,0.00,,---,0.00,86.00,VWS V14.01,2013-05-24 00:30:00,
2013-05-23 19:35:00,69.3,53.0,29.92,North,0,5.0,10.0,56,0.00,,---,0.00,87.00,VWS V14.01,2013-05-24 00:35:00,
2013-05-23 19:40:00,69.1,52.8,29.92,North,0,6.0,11.0,56,0.00,,---,0.00,119.00,VWS V14.01,2013-05-24 00:40:00,
2013-05-23 19:45:00,68.8,53.4,29.92,North,0,5.0,8.0,58,0.00,,---,0.00,58.00,VWS V14.01,2013-05-24 00:45:00,
2013-05-23 19:50:00,68.3,53.4,29.92,North,0,5.0,6.0,59,0.00,,---,0.00,53.00,VWS V14.01,2013-05-24 00:50:00,
2013-05-23 19:55:00,67.9,53.5,29.92,North,0,6.0,7.0,60,0.00,,---,0.00,40.00,VWS V14.01,2013-05-24 00:55:00,
2013-05-23 20:00:00,67.8,53.9,29.91,ENE,68,6.0,8.0,61,0.00,,---,0.00,40.00,VWS V14.01,2013-05-24 01:00:00,
2013-05-23 20:05:00,67.3,53.4,29.91,North,0,7.0,7.0,61,0.00,,---,0.00,40.00,VWS V14.01,2013-05-24 01:05:00,
2013-05-23 20:10:00,66.4,54.3,29.91,North,0,6.0,8.0,65,0.00,,---,0.00,35.00,VWS V14.01,2013-05-24 01:10:00,
2013-05-23 20:15:00,66.4,54.3,29.92,North,0,5.0,7.0,65,0.00,,---,0.00,35.00,VWS V14.01,2013-05-24 01:15:00,
2013-05-23 20:20:00,66.3,54.2,29.92,North,0,5.0,7.0,65,0.00,,---,0.00,35.00,VWS V14.01,2013-05-24 01:20:00,
2013-05-23 20:25:00,66.1,54.0,29.92,North,0,6.0,8.0,65,0.00,,---,0.00,17.00,VWS V14.01,2013-05-24 01:25:00,
2013-05-23 20:30:00,65.8,53.7,29.92,North,0,7.0,8.0,65,0.00,,---,0.00,6.00,VWS V14.01,2013-05-24 01:30:00,
2013-05-23 20:35:00,65.5,53.8,29.92,North,0,7.0,11.0,66,0.00,,---,0.00,5.00,VWS V14.01,2013-05-24 01:35:00,
2013-05-23 20:40:00,65.2,54.4,29.92,North,0,7.0,7.0,68,0.00,,---,0.00,5.00,VWS V14.01,2013-05-24 01:40:00,
2013-05-23 20:45:00,64.8,54.4,29.92,North,0,7.0,8.0,69,0.00,,---,0.00,0.00,VWS V14.01,2013-05-24 01:45:00,
2013-05-23 20:50:00,64.3,54.3,29.92,North,0,8.0,11.0,70,0.00,,---,0.00,0.00,VWS V14.01,2013-05-24 01:50:00,
2013-05-23 20:55:00,63.9,53.9,29.92,North,0,9.0,12.0,70,0.00,,---,0.00,0.00,VWS V14.01,2013-05-24 01:55:00,
2013-05-23 21:00:00,63.4,54.2,29.92,North,0,10.0,13.0,72,0.00,,---,0.00,0.00,VWS V14.01,2013-05-24 02:00:00,
2013-05-23 21:05:00,63.1,54.3,29.92,North,0,12.0,16.0,73,0.00,,---,0.00,0.00,VWS V14.01,2013-05-24 02:05:00,
2013-05-23 21:10:00,62.7,54.3,29.92,NNW,338,12.0,15.0,74,0.00,,---,0.00,0.00,VWS V14.01,2013-05-24 02:10:00,
2013-05-23 21:15:00,62.4,54.0,29.92,North,0,12.0,16.0,74,0.00,,---,0.00,0.00,VWS V14.01,2013-05-24 02:15:00,
2013-05-23 21:20:00,62.1,54.1,29.92,North,0,12.0,18.0,75,0.00,,---,0.00,0.00,VWS V14.01,2013-05-24 02:20:00,
2013-05-23 21:25:00,62.0,54.0,29.92,North,0,14.0,18.0,75,0.00,,---,0.00,0.00,VWS V14.01,2013-05-24 02:25:00,
2013-05-23 21:30:00,61.6,53.6,29.91,NW,315,14.0,18.0,75,0.00,,---,0.00,0.00,VWS V14.01,2013-05-24 02:30:00,
2013-05-23 21:35:00,61.5,53.5,29.91,North,0,18.0,21.0,75,0.00,,---,0.00,0.00,VWS V14.01,2013-05-24 02:35:00,
2013-05-23 21:40:00,61.3,53.7,29.91,North,0,15.0,19.0,76,0.00,,---,0.00,0.00,VWS V14.01,2013-05-24 02:40:00,
2013-05-23 21:45:00,61.2,53.6,29.91,North,0,14.0,18.0,76,0.00,,---,0.00,0.00,VWS V14.01,2013-05-24 02:45:00,
2013-05-23 21:50:00,61.0,53.0,29.91,North,0,14.0,17.0,75,0.00,,---,0.00,0.00,VWS V14.01,2013-05-24 02:50:00,
2013-05-23 21:55:00,60.9,53.3,29.91,North,0,14.0,17.0,76,0.00,,---,0.00,0.00,VWS V14.01,2013-05-24 02:55:00,
2013-05-23 22:00:00,60.9,53.3,29.92,North,0,13.0,18.0,76,0.00,,---,0.00,0.00,VWS V14.01,2013-05-24 03:00:00,
2013-05-23 22:05:00,60.7,53.1,29.92,North,0,12.0,14.0,76,0.00,,---,0.00,0.00,VWS V14.01,2013-05-24 03:05:00,
2013-05-23 22:10:00,60.7,53.5,29.92,North,0,10.0,14.0,77,0.00,,---,0.00,0.00,VWS V14.01,2013-05-24 03:10:00,
2013-05-23 22:15:00,60.7,52.7,29.93,North,0,10.0,16.0,75,0.00,,---,0.00,0.00,VWS V14.01,2013-05-24 03:15:00,
2013-05-23 22:20:00,60.7,52.7,29.93,North,0,8.0,11.0,75,0.00,,---,0.00,0.00,VWS V14.01,2013-05-24 03:20:00,
2013-05-23 22:25:00,60.5,52.5,29.93,North,0,8.0,10.0,75,0.00,,---,0.00,0.00,VWS V14.01,2013-05-24 03:25:00,
2013-05-23 22:30:00,60.5,52.5,29.94,North,0,8.0,13.0,75,0.00,,---,0.00,0.00,VWS V14.01,2013-05-24 03:30:00,
2013-05-23 22:35:00,60.4,52.5,29.94,North,0,9.0,13.0,75,0.00,,---,0.00,0.00,VWS V14.01,2013-05-24 03:35:00,
2013-05-23 22:40:00,60.2,52.6,29.94,North,0,9.0,12.0,76,0.00,,---,0.00,0.00,VWS V14.01,2013-05-24 03:40:00,
2013-05-23 22:45:00,59.9,52.7,29.96,North,0,7.0,10.0,77,0.00,,---,0.00,0.00,VWS V14.01,2013-05-24 03:45:00,
2013-05-23 22:50:00,59.8,52.9,29.96,North,0,6.0,8.0,78,0.00,,---,0.00,0.00,VWS V14.01,2013-05-24 03:50:00,
2013-05-23 22:55:00,59.5,52.6,29.96,North,0,6.0,12.0,78,0.00,,---,0.00,0.00,VWS V14.01,2013-05-24 03:55:00,
2013-05-23 23:00:00,59.3,52.5,29.96,North,0,7.0,8.0,78,0.00,,---,0.00,0.00,VWS V14.01,2013-05-24 04:00:00,
2013-05-23 23:05:00,59.3,52.8,29.96,North,0,5.0,11.0,79,0.00,,---,0.00,0.00,VWS V14.01,2013-05-24 04:05:00,
2013-05-23 23:10:00,59.2,52.7,29.96,North,0,7.0,9.0,79,0.00,,---,0.00,0.00,VWS V14.01,2013-05-24 04:10:00,
2013-05-23 23:15:00,59.0,52.5,29.97,North,0,6.0,9.0,79,0.00,,---,0.00,0.00,VWS V14.01,2013-05-24 04:15:00,
2013-05-23 23:20:00,58.9,52.4,29.97,North,0,6.0,8.0,79,0.00,,---,0.00,0.00,VWS V14.01,2013-05-24 04:20:00,
2013-05-23 23:25:00,58.6,52.1,29.97,North,0,5.0,7.0,79,0.00,,---,0.00,0.00,VWS V14.01,2013-05-24 04:25:00,
2013-05-23 23:30:00,58.4,52.3,29.97,North,0,5.0,8.0,80,0.00,,---,0.00,0.00,VWS V14.01,2013-05-24 04:30:00,
2013-05-23 23:35:00,58.3,52.5,29.97,North,0,5.0,7.0,81,0.00,,---,0.00,0.00,VWS V14.01,2013-05-24 04:35:00,
2013-05-23 23:40:00,58.3,52.5,29.97,North,0,5.0,6.0,81,0.00,,---,0.00,0.00,VWS V14.01,2013-05-24 04:40:00,
2013-05-23 23:45:00,58.1,52.6,29.97,North,0,6.0,8.0,82,0.00,,---,0.00,0.00,VWS V14.01,2013-05-24 04:45:00,
2013-05-23 23:50:00,58.1,52.6,29.97,North,0,6.0,8.0,82,0.00,,---,0.00,0.00,VWS V14.01,2013-05-24 04:50:00,
2013-05-23 23:55:00,58.1,52.6,29.97,North,0,7.0,11.0,82,0.00,,---,0.00,0.00,VWS V14.01,2013-05-24 04:55:00,